Time;durP1;ratioP1;P1;durP2;ratioP2;P2;SDS_P1;SDS_P2;PMS_P1;PMS_P2;Temp;Humidity;BMP_temperature;BMP_pressure;BME280_temperature;BME280_humidity;BME280_pressure;Samples;Min_cycle;Max_cycle;Signal;HPM_P1;HPM_P2
2021/07/07 00:00:21;;;;;;;7.30;3.05;;;20.10;94.20;;;;;;5031985;28;20042;-58
2021/07/07 00:02:49;;;;;;;6.43;2.92;;;20.10;94.30;;;;;;5031252;28;20095;-61
2021/07/07 00:05:16;;;;;;;8.82;3.20;;;19.90;94.80;;;;;;5031787;28;20065;-61
2021/07/07 00:07:43;;;;;;;6.30;3.33;;;19.90;94.90;;;;;;5031769;28;20064;-61
2021/07/07 00:10:13;;;;;;;5.55;3.17;;;19.90;94.90;;;;;;5031511;28;20049;-60
2021/07/07 00:12:38;;;;;;;8.98;3.28;;;19.90;95.00;;;;;;5014483;28;20040;-61
2021/07/07 00:15:09;;;;;;;8.93;3.20;;;19.80;94.90;;;;;;5031014;28;20029;-62
2021/07/07 00:17:35;;;;;;;5.05;3.50;;;19.80;94.90;;;;;;5031160;28;20034;-62
2021/07/07 00:20:00;;;;;;;8.10;3.22;;;19.70;95.30;;;;;;5031486;28;20029;-62
2021/07/07 00:22:26;;;;;;;5.45;3.30;;;19.70;95.30;;;;;;5031627;28;20504;-60
2021/07/07 00:24:51;;;;;;;6.43;3.45;;;19.60;95.10;;;;;;5013737;28;20057;-61
2021/07/07 00:27:17;;;;;;;10.35;3.28;;;19.50;95.40;;;;;;5037336;28;20029;-57
2021/07/07 00:29:43;;;;;;;5.43;3.08;;;19.50;95.60;;;;;;5031042;28;20068;-61
2021/07/07 00:32:09;;;;;;;5.55;3.30;;;19.40;95.70;;;;;;5031918;28;20025;-58
2021/07/07 00:34:35;;;;;;;7.93;3.17;;;19.50;95.60;;;;;;5031987;28;20104;-59
2021/07/07 00:37:02;;;;;;;5.60;3.15;;;19.30;95.90;;;;;;5032187;28;20036;-60
2021/07/07 00:39:28;;;;;;;8.77;3.17;;;19.30;95.70;;;;;;5032521;28;20045;-59
2021/07/07 00:41:53;;;;;;;5.20;3.22;;;19.30;95.40;;;;;;5031611;28;20037;-58
2021/07/07 00:44:19;;;;;;;7.40;3.30;;;19.40;95.40;;;;;;5031872;28;20045;-59
2021/07/07 00:46:45;;;;;;;7.10;3.30;;;19.50;95.50;;;;;;5031396;28;20389;-60
2021/07/07 00:49:13;;;;;;;6.13;3.80;;;19.60;95.20;;;;;;5031688;28;20034;-59
2021/07/07 00:51:39;;;;;;;7.28;3.30;;;19.60;95.60;;;;;;5032183;28;20052;-59
2021/07/07 00:54:05;;;;;;;9.02;3.58;;;19.50;95.50;;;;;;5031917;28;20116;-59
2021/07/07 00:56:34;;;;;;;7.25;3.38;;;19.30;95.60;;;;;;5031241;28;20026;-59
2021/07/07 00:59:02;;;;;;;5.75;4.28;;;19.20;96.20;;;;;;5013578;28;20041;-58
2021/07/07 01:01:28;;;;;;;4.78;3.40;;;19.10;96.50;;;;;;5033704;28;20084;-59
2021/07/07 01:03:53;;;;;;;6.95;3.83;;;19.10;96.60;;;;;;5034850;28;20477;-56
2021/07/07 01:06:19;;;;;;;9.32;3.33;;;19.10;96.50;;;;;;5034375;28;20033;-59
2021/07/07 01:08:44;;;;;;;3.95;3.15;;;19.10;96.40;;;;;;5034690;28;20029;-57
2021/07/07 01:11:10;;;;;;;6.97;3.33;;;19.20;96.30;;;;;;5034392;28;20068;-58
2021/07/07 01:13:38;;;;;;;4.40;2.97;;;19.30;96.30;;;;;;5034500;28;20025;-55
2021/07/07 01:16:04;;;;;;;9.85;3.45;;;19.40;96.00;;;;;;5034070;28;20025;-55
2021/07/07 01:18:30;;;;;;;7.43;3.85;;;19.50;95.80;;;;;;5034357;28;20378;-57
2021/07/07 01:20:56;;;;;;;5.93;3.22;;;19.50;95.80;;;;;;5034362;28;20036;-57
2021/07/07 01:23:21;;;;;;;6.30;3.40;;;19.60;95.80;;;;;;5034355;28;20496;-60
2021/07/07 01:25:47;;;;;;;6.15;3.30;;;19.70;95.70;;;;;;5020699;28;20033;-60
2021/07/07 01:28:12;;;;;;;4.97;3.17;;;19.70;95.70;;;;;;5034239;28;20045;-59
2021/07/07 01:37:22;;;;;;;6.80;3.58;;;19.30;96.50;;;;;;5014353;28;20037;-61
2021/07/07 01:39:49;;;;;;;9.80;3.67;;;19.40;96.30;;;;;;5014151;28;20041;-58
2021/07/07 01:42:15;;;;;;;5.78;3.40;;;19.50;95.90;;;;;;4997034;28;20054;-60
2021/07/07 01:44:40;;;;;;;6.70;3.00;;;19.50;95.70;;;;;;5026199;28;20104;-60
2021/07/07 01:47:08;;;;;;;6.30;3.65;;;19.60;96.00;;;;;;5033530;28;20038;-62
2021/07/07 01:49:33;;;;;;;4.85;3.20;;;19.60;96.10;;;;;;5033923;28;20543;-61
2021/07/07 01:51:59;;;;;;;5.88;3.53;;;19.70;95.90;;;;;;5034193;28;20033;-61
2021/07/07 01:54:25;;;;;;;5.65;3.55;;;19.70;95.60;;;;;;5034268;28;20065;-61
2021/07/07 01:56:50;;;;;;;6.93;3.50;;;19.70;95.60;;;;;;5016126;28;20044;-62
2021/07/07 01:59:16;;;;;;;5.47;3.45;;;19.70;95.50;;;;;;5033831;28;20111;-62
2021/07/07 02:01:41;;;;;;;7.93;3.55;;;19.70;95.70;;;;;;5034266;28;20029;-62
2021/07/07 02:04:07;;;;;;;8.50;3.80;;;19.70;95.80;;;;;;5033902;28;20033;-58
2021/07/07 02:06:32;;;;;;;7.43;3.90;;;19.70;96.10;;;;;;5033122;28;20481;-60
2021/07/07 02:08:59;;;;;;;5.97;4.35;;;19.70;96.00;;;;;;5033712;28;20061;-58
2021/07/07 02:11:25;;;;;;;9.40;7.30;;;19.70;95.90;;;;;;5032454;28;20033;-60
2021/07/07 02:13:51;;;;;;;16.75;10.98;;;19.70;96.00;;;;;;5033453;28;20477;-57
2021/07/07 02:16:16;;;;;;;12.23;7.32;;;19.70;96.00;;;;;;5033330;28;20030;-56
2021/07/07 02:18:42;;;;;;;8.50;5.72;;;19.70;95.90;;;;;;5033450;28;20034;-57
2021/07/07 02:21:08;;;;;;;7.50;4.97;;;19.60;95.90;;;;;;5033661;28;20045;-55
2021/07/07 02:23:33;;;;;;;4.80;4.03;;;19.70;96.00;;;;;;5033242;28;20409;-57
2021/07/07 02:25:59;;;;;;;7.28;4.32;;;19.70;96.00;;;;;;5024568;28;20042;-59
2021/07/07 02:28:25;;;;;;;8.15;3.40;;;19.60;96.00;;;;;;5014294;28;20375;-59
2021/07/07 02:30:53;;;;;;;9.27;4.00;;;19.70;96.10;;;;;;5029156;28;20535;-55
2021/07/07 02:33:20;;;;;;;5.63;3.15;;;19.70;95.80;;;;;;5033172;28;20398;-54
2021/07/07 02:35:47;;;;;;;7.78;3.92;;;19.70;96.00;;;;;;5016511;28;20391;-56
2021/07/07 02:38:15;;;;;;;5.57;3.40;;;19.60;95.90;;;;;;4995839;28;20131;-56
2021/07/07 02:40:42;;;;;;;7.20;3.85;;;19.50;96.10;;;;;;5013150;28;20053;-56
2021/07/07 02:43:08;;;;;;;5.32;4.32;;;19.50;96.10;;;;;;5013420;28;20575;-55
2021/07/07 02:45:36;;;;;;;4.47;3.70;;;19.50;96.10;;;;;;5032138;28;20145;-53
2021/07/07 02:48:03;;;;;;;6.82;3.70;;;19.50;96.40;;;;;;5014248;28;20421;-56
2021/07/07 02:50:29;;;;;;;4.90;3.83;;;19.50;96.50;;;;;;5031605;28;20152;-57
2021/07/07 02:52:55;;;;;;;6.28;4.15;;;19.50;96.40;;;;;;5015125;28;20565;-53
2021/07/07 02:55:22;;;;;;;6.22;3.60;;;19.40;96.60;;;;;;5032438;28;20075;-57
2021/07/07 02:57:58;;;;;;;5.72;3.90;;;19.40;96.50;;;;;;5015446;28;20076;-58
2021/07/07 03:00:43;;;;;;;6.70;4.15;;;19.20;96.90;;;;;;5032603;28;20033;-56
2021/07/07 03:03:17;;;;;;;4.95;3.65;;;19.20;97.20;;;;;;5032803;28;20041;-56
2021/07/07 03:05:49;;;;;;;7.90;3.72;;;19.20;96.90;;;;;;5032581;28;20033;-56
2021/07/07 03:08:15;;;;;;;6.43;3.75;;;19.30;96.80;;;;;;5032728;28;20480;-55
2021/07/07 03:10:42;;;;;;;6.32;3.85;;;19.40;96.70;;;;;;5032567;28;20091;-55
2021/07/07 03:13:08;;;;;;;6.05;3.63;;;19.40;96.70;;;;;;5012079;28;20717;-58
2021/07/07 03:15:36;;;;;;;5.20;3.63;;;19.30;96.40;;;;;;5012398;28;20038;-57
2021/07/07 03:18:03;;;;;;;4.55;3.53;;;19.20;96.60;;;;;;5018715;28;20041;-56
2021/07/07 03:20:29;;;;;;;6.80;4.03;;;19.30;96.70;;;;;;5032476;28;20041;-53
2021/07/07 03:22:55;;;;;;;5.15;3.60;;;19.40;96.80;;;;;;5031931;28;20092;-54
2021/07/07 03:25:21;;;;;;;7.45;3.80;;;19.40;96.60;;;;;;5036006;28;20040;-56
2021/07/07 03:27:48;;;;;;;7.38;4.10;;;19.40;96.40;;;;;;5052364;28;20095;-54
2021/07/07 03:30:14;;;;;;;6.45;3.63;;;19.30;96.50;;;;;;5049033;28;20033;-55
2021/07/07 03:32:40;;;;;;;5.85;3.80;;;19.30;96.60;;;;;;5032565;28;20362;-57
2021/07/07 03:35:06;;;;;;;4.68;3.38;;;19.20;96.60;;;;;;5032372;28;20025;-55
2021/07/07 03:37:31;;;;;;;7.15;3.90;;;19.30;96.60;;;;;;5014973;28;20124;-55
2021/07/07 03:39:57;;;;;;;6.03;3.75;;;19.20;96.60;;;;;;5014665;28;20065;-57
2021/07/07 03:42:23;;;;;;;7.70;4.10;;;19.30;96.60;;;;;;5029676;28;20088;-57
2021/07/07 03:44:48;;;;;;;6.82;3.90;;;19.40;96.60;;;;;;5014672;28;20096;-55
2021/07/07 03:47:14;;;;;;;5.38;3.97;;;19.40;96.50;;;;;;5032131;28;20040;-53
2021/07/07 03:49:39;;;;;;;7.00;4.05;;;19.40;96.30;;;;;;5032190;28;20123;-55
2021/07/07 03:52:05;;;;;;;5.28;3.90;;;19.50;96.30;;;;;;5032934;28;20026;-56
2021/07/07 03:54:32;;;;;;;5.47;4.25;;;19.50;96.10;;;;;;5032286;28;20025;-58
2021/07/07 03:56:57;;;;;;;7.20;4.18;;;19.50;95.80;;;;;;5031627;28;20030;-56
2021/07/07 03:59:23;;;;;;;7.95;4.15;;;19.50;95.40;;;;;;5031795;28;20028;-59
2021/07/07 04:01:50;;;;;;;8.55;5.18;;;19.50;95.60;;;;;;5032434;28;20076;-57
2021/07/07 04:04:16;;;;;;;6.97;4.68;;;19.50;95.60;;;;;;5032131;28;20032;-55
2021/07/07 04:06:45;;;;;;;7.78;4.90;;;19.40;95.60;;;;;;5015513;28;20068;-58
2021/07/07 04:09:13;;;;;;;15.88;5.10;;;19.10;96.10;;;;;;5012371;28;20057;-55
2021/07/07 04:11:39;;;;;;;12.73;6.30;;;19.10;96.30;;;;;;5012505;28;20446;-58
2021/07/07 04:14:05;;;;;;;9.20;4.63;;;19.00;96.40;;;;;;5011483;28;20358;-56
2021/07/07 04:16:30;;;;;;;9.60;5.05;;;19.00;96.70;;;;;;5012017;28;20022;-57
2021/07/07 04:18:56;;;;;;;10.38;5.40;;;19.10;96.60;;;;;;5025113;28;20377;-59
2021/07/07 04:21:22;;;;;;;7.43;4.55;;;19.10;96.10;;;;;;5031846;28;20025;-57
2021/07/07 04:23:47;;;;;;;8.32;5.25;;;19.00;96.20;;;;;;5032020;28;20029;-57
2021/07/07 04:26:13;;;;;;;10.90;5.38;;;19.10;96.40;;;;;;5020936;28;20064;-59
2021/07/07 04:28:39;;;;;;;8.45;4.88;;;19.10;97.00;;;;;;5031371;28;20497;-57
2021/07/07 04:31:05;;;;;;;9.32;4.85;;;19.10;96.90;;;;;;5032077;28;20041;-57
2021/07/07 04:33:30;;;;;;;8.35;5.18;;;19.20;96.80;;;;;;5033190;28;20493;-57
2021/07/07 04:35:56;;;;;;;5.97;5.15;;;19.30;96.60;;;;;;5034534;28;20037;-55
2021/07/07 04:38:22;;;;;;;5.38;4.78;;;19.30;96.60;;;;;;5037844;28;20518;-54
2021/07/07 04:40:47;;;;;;;8.40;5.70;;;19.30;96.50;;;;;;5033301;28;20052;-59
2021/07/07 04:43:13;;;;;;;8.10;4.53;;;19.40;96.20;;;;;;5035063;28;20507;-57
2021/07/07 04:45:39;;;;;;;7.43;5.10;;;19.40;96.30;;;;;;5034680;28;20392;-60
2021/07/07 04:48:04;;;;;;;6.90;4.40;;;19.40;96.30;;;;;;5035015;28;20489;-56
2021/07/07 04:50:30;;;;;;;6.43;4.50;;;19.50;96.40;;;;;;5035476;28;20033;-55
2021/07/07 04:52:55;;;;;;;7.65;5.25;;;19.50;96.40;;;;;;5035185;28;20037;-52
2021/07/07 04:55:21;;;;;;;6.95;4.88;;;19.50;96.40;;;;;;5035248;28;20038;-58
2021/07/07 04:57:47;;;;;;;13.32;9.43;;;19.60;96.30;;;;;;5034596;28;20071;-54
2021/07/07 05:00:23;;;;;;;13.07;9.25;;;19.60;96.30;;;;;;5034928;28;20041;-57
2021/07/07 05:02:50;;;;;;;9.32;6.63;;;19.60;96.00;;;;;;5035299;28;20111;-56
2021/07/07 05:05:18;;;;;;;8.25;5.90;;;19.70;95.90;;;;;;5034972;28;20505;-53
2021/07/07 05:07:44;;;;;;;7.57;5.40;;;19.70;95.80;;;;;;5034811;28;20061;-58
2021/07/07 05:10:11;;;;;;;7.57;5.00;;;19.70;95.30;;;;;;5034906;28;20141;-57
2021/07/07 05:12:37;;;;;;;9.90;5.78;;;19.70;95.10;;;;;;5035487;28;20218;-57
2021/07/07 05:15:04;;;;;;;5.63;4.50;;;19.70;95.20;;;;;;5034847;28;20036;-53
2021/07/07 05:17:30;;;;;;;8.18;4.97;;;19.60;95.30;;;;;;5032745;28;20025;-57
2021/07/07 05:19:57;;;;;;;5.57;4.63;;;19.50;95.70;;;;;;5015266;28;20039;-58
2021/07/07 05:22:23;;;;;;;8.05;4.85;;;19.50;95.80;;;;;;5016665;28;20065;-59
2021/07/07 05:24:48;;;;;;;8.88;4.95;;;19.50;96.00;;;;;;5027285;28;20041;-56
2021/07/07 05:27:14;;;;;;;9.05;5.47;;;19.50;95.90;;;;;;5030723;28;20501;-60
2021/07/07 05:29:41;;;;;;;7.82;4.65;;;19.50;95.80;;;;;;5028596;28;20560;-55
2021/07/07 05:32:07;;;;;;;7.60;5.25;;;19.50;95.50;;;;;;5007580;28;20038;-59
2021/07/07 05:34:34;;;;;;;7.28;4.60;;;19.60;95.50;;;;;;5036607;28;20021;-55
2021/07/07 05:37:00;;;;;;;6.70;4.32;;;19.60;95.60;;;;;;5047859;28;20026;-54
2021/07/07 05:39:26;;;;;;;9.35;4.97;;;19.60;95.50;;;;;;5033803;28;20504;-58
2021/07/07 05:41:51;;;;;;;9.27;4.70;;;19.60;95.40;;;;;;5034179;28;20021;-54
2021/07/07 05:44:17;;;;;;;9.20;4.30;;;19.80;95.20;;;;;;5034245;28;20037;-55
2021/07/07 05:46:42;;;;;;;8.00;3.88;;;19.80;94.90;;;;;;5032648;28;20040;-55
2021/07/07 05:49:08;;;;;;;7.72;4.53;;;19.80;94.70;;;;;;5032837;28;20049;-56
2021/07/07 05:51:33;;;;;;;10.57;4.47;;;19.80;94.60;;;;;;5033840;28;20029;-56
2021/07/07 05:53:59;;;;;;;6.35;3.97;;;19.80;94.60;;;;;;5030559;28;20036;-57
2021/07/07 05:56:24;;;;;;;5.18;3.50;;;19.80;94.60;;;;;;5014019;28;20034;-60
2021/07/07 05:58:50;;;;;;;9.68;3.53;;;19.80;94.70;;;;;;5033419;28;20040;-61
2021/07/07 06:01:16;;;;;;;5.60;3.75;;;19.80;94.70;;;;;;5012798;28;20125;-59
2021/07/07 06:03:42;;;;;;;5.97;3.65;;;19.90;94.70;;;;;;5022830;28;20034;-59
2021/07/07 06:06:08;;;;;;;5.68;3.78;;;19.90;94.50;;;;;;5025221;28;20489;-59
2021/07/07 06:08:34;;;;;;;5.80;3.60;;;20.00;94.50;;;;;;5031212;28;20095;-57
2021/07/07 06:11:00;;;;;;;8.48;3.63;;;20.00;94.50;;;;;;5030149;28;20030;-56
2021/07/07 06:13:25;;;;;;;8.48;4.47;;;20.00;94.10;;;;;;5015817;28;20030;-58
2021/07/07 06:15:51;;;;;;;4.38;3.60;;;19.90;94.50;;;;;;5030093;28;20033;-56
2021/07/07 06:18:17;;;;;;;11.02;4.80;;;19.70;94.70;;;;;;5033283;28;20056;-58
2021/07/07 06:20:44;;;;;;;7.95;5.38;;;19.70;95.00;;;;;;5033337;28;20026;-57
2021/07/07 06:23:09;;;;;;;8.55;4.53;;;19.70;95.30;;;;;;5033088;28;20030;-56
2021/07/07 06:25:35;;;;;;;7.50;4.53;;;19.60;95.40;;;;;;5033139;28;20026;-57
2021/07/07 06:28:02;;;;;;;6.90;4.25;;;19.60;95.70;;;;;;5033000;28;20080;-56
2021/07/07 06:30:29;;;;;;;8.02;5.03;;;19.60;95.80;;;;;;5032537;28;20074;-55
2021/07/07 06:32:57;;;;;;;12.13;4.80;;;19.60;95.90;;;;;;5033402;28;20025;-58
2021/07/07 06:35:23;;;;;;;10.75;5.00;;;19.70;95.90;;;;;;5032632;28;20120;-59
2021/07/07 06:37:49;;;;;;;11.35;4.93;;;19.70;95.80;;;;;;5032639;28;20033;-56
2021/07/07 06:40:16;;;;;;;8.27;4.80;;;19.80;95.80;;;;;;5033092;28;20032;-58
2021/07/07 06:42:42;;;;;;;8.75;5.60;;;19.80;95.90;;;;;;5027283;28;20393;-55
2021/07/07 06:45:09;;;;;;;8.95;4.75;;;19.80;95.60;;;;;;5033286;28;20033;-59
2021/07/07 06:47:36;;;;;;;12.77;5.97;;;19.80;95.70;;;;;;5033451;28;20025;-59
2021/07/07 06:50:04;;;;;;;7.97;4.85;;;19.80;95.90;;;;;;5018370;28;20092;-58
2021/07/07 06:52:30;;;;;;;7.68;5.40;;;19.80;95.90;;;;;;5000082;28;20764;-57
2021/07/07 06:54:55;;;;;;;9.30;5.38;;;19.90;95.80;;;;;;5030462;28;20032;-58
2021/07/07 06:57:21;;;;;;;11.82;5.35;;;20.00;95.80;;;;;;5031037;28;20043;-54
2021/07/07 06:59:46;;;;;;;8.35;5.22;;;20.00;95.60;;;;;;5032021;28;20389;-58
2021/07/07 07:02:12;;;;;;;7.70;4.93;;;20.00;95.50;;;;;;5029250;28;20107;-57
2021/07/07 07:04:37;;;;;;;9.98;6.05;;;20.20;95.40;;;;;;5032256;28;20033;-58
2021/07/07 07:07:03;;;;;;;7.93;5.10;;;20.10;95.20;;;;;;5031978;28;20473;-57
2021/07/07 07:09:29;;;;;;;7.93;5.72;;;20.20;95.30;;;;;;5014182;28;20438;-57
2021/07/07 07:11:55;;;;;;;9.65;4.63;;;20.20;95.20;;;;;;5029639;28;20025;-57
2021/07/07 07:14:20;;;;;;;7.65;4.75;;;20.20;95.30;;;;;;5032035;28;20116;-58
2021/07/07 07:16:46;;;;;;;7.65;5.18;;;20.20;95.10;;;;;;5032025;28;20030;-57
2021/07/07 07:19:14;;;;;;;9.52;5.30;;;20.30;95.10;;;;;;5032394;28;20025;-58
2021/07/07 07:21:40;;;;;;;8.77;5.80;;;20.20;94.90;;;;;;5032272;28;20507;-57
2021/07/07 07:24:06;;;;;;;7.32;5.70;;;20.20;95.00;;;;;;5032463;28;20104;-58
2021/07/07 07:26:33;;;;;;;8.32;6.30;;;20.20;95.10;;;;;;5026009;28;20033;-57
2021/07/07 07:28:59;;;;;;;8.32;5.70;;;20.20;95.10;;;;;;5031673;28;20041;-58
2021/07/07 07:31:25;;;;;;;12.30;6.45;;;20.10;95.10;;;;;;5031594;28;20089;-58
2021/07/07 07:33:50;;;;;;;11.15;7.30;;;20.20;95.10;;;;;;5031678;28;20026;-56
2021/07/07 07:36:17;;;;;;;9.82;6.50;;;20.20;95.10;;;;;;5031501;28;20389;-54
2021/07/07 07:38:45;;;;;;;14.15;6.60;;;20.30;95.10;;;;;;5023923;28;20025;-59
2021/07/07 07:41:11;;;;;;;8.80;6.13;;;20.30;95.00;;;;;;5003657;28;20041;-55
2021/07/07 07:43:38;;;;;;;8.27;5.78;;;20.40;94.90;;;;;;5029352;28;20481;-57
2021/07/07 07:46:04;;;;;;;11.95;6.88;;;20.50;94.80;;;;;;5006376;28;20033;-57
2021/07/07 07:48:31;;;;;;;10.35;6.28;;;20.60;94.70;;;;;;5031951;28;20393;-57
2021/07/07 07:50:57;;;;;;;10.15;6.57;;;20.60;94.80;;;;;;5018134;28;20077;-58
2021/07/07 07:53:22;;;;;;;9.90;5.57;;;20.70;94.60;;;;;;5027259;28;20041;-57
2021/07/07 07:55:48;;;;;;;7.47;5.78;;;20.70;94.40;;;;;;5033097;28;20034;-57
2021/07/07 07:58:18;;;;;;;8.65;6.40;;;20.70;94.30;;;;;;5027181;28;20053;-57
2021/07/07 08:00:48;;;;;;;10.55;6.03;;;20.80;94.10;;;;;;5031479;28;20025;-58
2021/07/07 08:03:16;;;;;;;11.05;7.30;;;20.80;94.10;;;;;;5014801;28;20030;-57
2021/07/07 08:05:42;;;;;;;10.90;8.25;;;20.90;94.10;;;;;;5014320;28;20508;-55
2021/07/07 08:08:09;;;;;;;11.55;8.27;;;20.90;94.10;;;;;;5031960;28;20017;-58
2021/07/07 08:10:35;;;;;;;11.07;8.57;;;20.90;94.10;;;;;;5033566;28;20044;-58
2021/07/07 08:13:01;;;;;;;12.13;8.10;;;21.00;94.10;;;;;;5036569;28;20037;-57
2021/07/07 08:15:27;;;;;;;15.60;8.23;;;20.90;94.10;;;;;;5035837;28;20053;-58
2021/07/07 08:17:55;;;;;;;9.00;8.00;;;20.90;94.10;;;;;;5018567;28;20036;-57
2021/07/07 08:20:22;;;;;;;11.30;7.85;;;20.90;93.90;;;;;;5037446;28;20061;-60
2021/07/07 08:22:48;;;;;;;7.97;7.18;;;21.00;93.60;;;;;;5018863;28;20038;-59
2021/07/07 08:25:14;;;;;;;7.85;7.05;;;20.90;93.50;;;;;;5038933;28;20033;-57
2021/07/07 08:27:40;;;;;;;7.72;6.95;;;20.90;93.50;;;;;;5055961;28;20037;-56
2021/07/07 08:30:09;;;;;;;12.02;6.55;;;20.90;93.60;;;;;;5056237;28;20036;-59
2021/07/07 08:32:35;;;;;;;14.10;10.25;;;21.10;93.50;;;;;;5056129;28;20022;-56
2021/07/07 08:35:01;;;;;;;11.15;7.53;;;21.00;92.70;;;;;;5056669;28;20093;-54
2021/07/07 08:37:26;;;;;;;9.63;7.38;;;20.90;93.00;;;;;;5055776;28;20044;-57
2021/07/07 08:39:52;;;;;;;9.02;6.70;;;20.90;93.10;;;;;;5056116;28;20127;-58
2021/07/07 08:42:18;;;;;;;12.15;7.65;;;20.90;92.60;;;;;;5056213;28;20028;-58
2021/07/07 08:44:44;;;;;;;10.75;7.00;;;20.90;93.00;;;;;;5056065;28;20037;-59
2021/07/07 08:47:10;;;;;;;7.70;6.35;;;20.90;93.00;;;;;;5055993;28;20043;-59
2021/07/07 08:49:37;;;;;;;8.40;6.18;;;21.00;92.90;;;;;;5055885;28;20475;-59
2021/07/07 08:52:03;;;;;;;8.85;5.70;;;21.10;92.40;;;;;;5055326;28;20403;-59
2021/07/07 08:54:31;;;;;;;5.95;5.13;;;21.10;92.40;;;;;;5036352;28;20033;-56
2021/07/07 08:56:58;;;;;;;7.40;5.63;;;21.20;92.60;;;;;;5035368;28;20021;-54
2021/07/07 08:59:24;;;;;;;7.55;5.72;;;21.30;92.50;;;;;;5035724;28;20034;-55
2021/07/07 09:02:09;;;;;;;10.63;5.60;;;21.50;92.20;;;;;;5035753;28;20056;-55
2021/07/07 09:04:43;;;;;;;12.48;6.38;;;21.50;92.30;;;;;;5017905;28;20029;-55
2021/07/07 09:07:10;;;;;;;9.32;5.90;;;21.50;92.40;;;;;;5035366;28;20041;-57
2021/07/07 09:09:41;;;;;;;9.23;7.40;;;21.50;92.30;;;;;;5035434;28;20508;-56
2021/07/07 09:12:16;;;;;;;10.38;8.13;;;21.50;92.10;;;;;;5035572;28;20036;-56
2021/07/07 09:14:43;;;;;;;16.63;7.22;;;21.60;91.90;;;;;;5035284;28;20547;-59
2021/07/07 09:17:14;;;;;;;12.25;6.05;;;21.60;92.00;;;;;;5035119;28;20041;-58
2021/07/07 09:19:41;;;;;;;10.68;6.45;;;21.70;91.90;;;;;;5034880;28;20034;-58
2021/07/07 09:22:10;;;;;;;14.75;5.97;;;21.70;91.70;;;;;;5034495;28;20026;-58
2021/07/07 09:24:38;;;;;;;8.90;5.68;;;21.70;91.60;;;;;;5034740;28;20311;-55
2021/07/07 09:27:10;;;;;;;6.90;4.85;;;21.70;91.50;;;;;;5034934;28;20029;-60
2021/07/07 09:29:39;;;;;;;8.27;5.32;;;21.80;91.50;;;;;;5035076;28;20033;-56
2021/07/07 09:32:26;;;;;;;7.88;5.22;;;22.00;91.40;;;;;;5034752;28;20026;-55
2021/07/07 09:34:52;;;;;;;8.13;7.13;;;22.20;91.00;;;;;;5035289;28;20040;-58
2021/07/07 09:37:23;;;;;;;8.50;5.13;;;22.30;90.80;;;;;;5035278;28;20037;-57
2021/07/07 09:39:49;;;;;;;8.15;4.97;;;22.40;90.80;;;;;;5034877;28;20118;-56
2021/07/07 09:42:26;;;;;;;7.85;4.60;;;22.40;90.80;;;;;;5035135;28;20040;-57
2021/07/07 09:44:52;;;;;;;9.27;5.32;;;22.40;90.80;;;;;;5035263;28;20056;-60
2021/07/07 09:47:19;;;;;;;10.02;5.85;;;22.40;90.80;;;;;;5035948;28;20034;-60
2021/07/07 09:49:47;;;;;;;8.02;4.60;;;22.40;90.60;;;;;;5035996;28;20044;-60
2021/07/07 09:52:14;;;;;;;7.10;5.95;;;22.50;90.60;;;;;;5035819;28;20033;-56
2021/07/07 09:54:40;;;;;;;9.02;5.78;;;22.60;90.10;;;;;;5034924;28;20052;-60
2021/07/07 09:57:06;;;;;;;7.22;5.90;;;22.60;90.60;;;;;;5039244;28;20425;-57
2021/07/07 09:59:32;;;;;;;8.00;6.35;;;22.60;90.30;;;;;;5034909;28;20112;-55
2021/07/07 10:01:58;;;;;;;8.55;5.93;;;22.50;90.10;;;;;;5000772;28;20026;-58
2021/07/07 10:04:31;;;;;;;7.45;6.20;;;22.60;90.10;;;;;;5034276;28;20029;-58
2021/07/07 10:06:58;;;;;;;6.78;6.18;;;22.30;90.10;;;;;;5034375;28;20029;-59
2021/07/07 10:09:24;;;;;;;7.45;6.68;;;22.20;90.40;;;;;;5034441;28;20037;-56
2021/07/07 10:11:50;;;;;;;7.85;7.05;;;22.30;90.50;;;;;;5034270;28;20119;-59
2021/07/07 10:14:16;;;;;;;11.60;5.88;;;22.40;90.60;;;;;;5033744;28;20464;-57
2021/07/07 10:16:42;;;;;;;7.30;6.60;;;22.40;90.70;;;;;;5034564;28;20063;-59
2021/07/07 10:19:09;;;;;;;9.02;6.70;;;22.40;90.60;;;;;;5034010;28;20029;-57
2021/07/07 10:21:34;;;;;;;8.48;6.90;;;22.50;90.70;;;;;;5016535;28;20033;-58
2021/07/07 10:24:01;;;;;;;8.05;6.90;;;22.50;90.30;;;;;;4983873;28;20132;-57
2021/07/07 10:26:28;;;;;;;8.75;7.88;;;22.50;90.40;;;;;;5033502;28;20496;-57
2021/07/07 10:28:53;;;;;;;10.07;7.30;;;22.50;90.00;;;;;;5034201;28;20497;-57
2021/07/07 10:31:20;;;;;;;7.65;6.05;;;22.40;90.10;;;;;;5033915;28;20069;-58
2021/07/07 10:33:46;;;;;;;7.43;6.10;;;22.50;90.20;;;;;;5033078;28;20029;-56
2021/07/07 10:36:14;;;;;;;8.52;6.32;;;22.50;89.90;;;;;;5033376;28;20048;-54
2021/07/07 10:38:40;;;;;;;8.30;5.95;;;22.60;90.00;;;;;;5033298;28;20026;-56
2021/07/07 10:41:06;;;;;;;8.20;6.15;;;22.50;90.00;;;;;;5033263;28;20036;-56
2021/07/07 10:43:45;;;;;;;7.68;5.90;;;22.60;90.00;;;;;;5033841;28;20061;-56
2021/07/07 10:46:52;;;;;;;6.88;5.38;;;22.50;89.80;;;;;;5033471;28;20029;-59
2021/07/07 10:49:23;;;;;;;7.32;5.35;;;22.50;89.80;;;;;;5033462;28;20029;-58
2021/07/07 10:51:51;;;;;;;7.10;4.78;;;22.50;89.60;;;;;;5033073;28;20044;-52
2021/07/07 10:54:28;;;;;;;7.18;5.10;;;22.50;90.00;;;;;;5033509;28;20091;-56
2021/07/07 10:56:54;;;;;;;7.35;4.47;;;22.40;89.60;;;;;;5032823;28;20021;-58
2021/07/07 10:59:42;;;;;;;6.93;4.60;;;22.50;89.80;;;;;;5033158;28;20025;-55
2021/07/07 11:02:19;;;;;;;6.53;4.50;;;22.70;89.40;;;;;;5033460;28;20085;-56
2021/07/07 11:04:53;;;;;;;6.15;4.30;;;23.10;88.50;;;;;;5032917;28;20405;-55
2021/07/07 11:07:31;;;;;;;6.65;4.30;;;23.10;87.80;;;;;;5032812;28;20452;-56
2021/07/07 11:10:05;;;;;;;7.43;4.55;;;23.30;87.10;;;;;;5033424;28;20091;-52
2021/07/07 11:12:36;;;;;;;6.38;4.05;;;23.40;87.30;;;;;;5015026;28;20033;-58
2021/07/07 11:15:22;;;;;;;8.07;4.50;;;23.50;87.30;;;;;;5015247;28;20057;-56
2021/07/07 11:17:49;;;;;;;9.05;5.47;;;23.60;86.70;;;;;;5032609;28;20056;-56
2021/07/07 11:20:26;;;;;;;10.15;5.90;;;24.00;85.60;;;;;;5032952;28;20025;-52
2021/07/07 11:23:04;;;;;;;12.07;5.68;;;24.10;85.20;;;;;;5033346;28;20037;-56
2021/07/07 11:25:32;;;;;;;12.63;6.47;;;24.00;84.90;;;;;;5033303;28;20047;-59
2021/07/07 11:27:59;;;;;;;8.55;6.40;;;23.90;84.70;;;;;;5032288;28;20041;-54
2021/07/07 11:30:25;;;;;;;9.13;6.72;;;23.80;84.90;;;;;;5032676;28;20037;-60
2021/07/07 11:32:54;;;;;;;11.15;7.07;;;23.80;85.30;;;;;;5032637;28;20030;-59
2021/07/07 11:35:30;;;;;;;12.88;8.25;;;23.90;85.40;;;;;;5033192;28;20022;-58
2021/07/07 11:37:58;;;;;;;7.40;6.03;;;23.90;85.20;;;;;;5032354;28;20037;-55
2021/07/07 11:40:25;;;;;;;8.98;5.40;;;24.00;85.10;;;;;;5032494;28;20053;-59
2021/07/07 11:43:06;;;;;;;9.52;6.47;;;24.00;85.00;;;;;;5032995;28;20080;-55
2021/07/07 11:45:41;;;;;;;8.98;6.35;;;24.10;83.80;;;;;;5032563;28;20038;-57
2021/07/07 11:48:14;;;;;;;8.10;6.55;;;23.80;84.30;;;;;;5032442;28;20084;-57
2021/07/07 11:50:47;;;;;;;9.13;8.23;;;23.70;85.10;;;;;;5032563;28;20497;-56
2021/07/07 11:53:14;;;;;;;13.13;8.40;;;23.60;85.10;;;;;;5032626;28;20550;-54
2021/07/07 11:55:54;;;;;;;7.78;6.22;;;23.60;85.00;;;;;;5032449;28;20045;-53
2021/07/07 11:58:31;;;;;;;8.35;6.05;;;23.60;84.70;;;;;;5032604;28;20025;-55
2021/07/07 12:01:02;;;;;;;8.57;5.85;;;23.70;84.20;;;;;;5032816;28;20022;-57
2021/07/07 12:03:28;;;;;;;12.43;7.70;;;23.70;84.20;;;;;;5032032;28;20033;-55
2021/07/07 12:06:09;;;;;;;16.88;8.90;;;23.80;84.50;;;;;;5014723;28;20120;-57
2021/07/07 12:08:40;;;;;;;7.50;6.60;;;23.80;84.30;;;;;;5032906;28;20041;-59
2021/07/07 12:11:17;;;;;;;8.32;6.68;;;24.00;84.20;;;;;;5032633;28;20532;-59
2021/07/07 12:13:48;;;;;;;7.55;6.20;;;24.20;83.20;;;;;;5032172;28;20038;-55
2021/07/07 12:16:25;;;;;;;6.53;5.85;;;24.20;82.70;;;;;;5014762;28;20033;-59
2021/07/07 12:18:58;;;;;;;7.47;5.22;;;24.10;82.90;;;;;;5032311;28;20025;-58
2021/07/07 12:21:24;;;;;;;7.60;5.03;;;24.20;83.30;;;;;;5016032;28;20048;-60
2021/07/07 12:23:53;;;;;;;6.05;5.45;;;24.30;82.40;;;;;;5031985;28;20489;-57
2021/07/07 12:26:21;;;;;;;5.28;4.78;;;24.30;82.50;;;;;;5032096;28;20077;-55
2021/07/07 12:28:53;;;;;;;8.60;5.30;;;24.60;82.40;;;;;;5032630;28;20508;-53
2021/07/07 12:31:19;;;;;;;7.72;5.97;;;24.60;81.40;;;;;;5032569;28;20505;-56
2021/07/07 12:33:46;;;;;;;6.05;5.55;;;24.50;81.50;;;;;;5032553;28;20037;-53
2021/07/07 12:36:12;;;;;;;6.93;5.57;;;24.60;81.80;;;;;;5032213;28;20033;-55
2021/07/07 12:38:45;;;;;;;7.93;5.32;;;24.80;81.20;;;;;;5031966;28;20061;-56
2021/07/07 12:41:11;;;;;;;8.05;4.55;;;24.90;80.70;;;;;;5014445;28;20172;-54
2021/07/07 12:44:08;;;;;;;6.32;4.13;;;25.30;80.30;;;;;;5032040;28;20481;-58
2021/07/07 12:46:47;;;;;;;9.05;5.35;;;25.70;79.30;;;;;;5031766;28;20052;-56
2021/07/07 12:49:12;;;;;;;8.48;5.72;;;25.50;77.80;;;;;;5032260;28;20030;-56
2021/07/07 12:51:38;;;;;;;10.88;6.20;;;25.30;79.10;;;;;;5031874;28;20036;-55
2021/07/07 12:54:21;;;;;;;12.60;11.30;;;25.30;79.50;;;;;;5031922;28;20026;-55